createdAt,value
2023-02-27T00:01:41.563Z,44.19
2023-02-27T00:06:44.314Z,43.99
2023-02-27T00:11:48.459Z,44.21
2023-02-27T00:16:51.270Z,44.33
2023-02-27T00:21:54.048Z,44.54
2023-02-27T00:26:58.519Z,44.52
2023-02-27T00:32:01.382Z,44.78
2023-02-27T00:37:04.317Z,44.68
2023-02-27T00:42:08.499Z,44.83
2023-02-27T00:47:11.354Z,45.35
2023-02-27T00:52:15.639Z,45.79
2023-02-27T00:57:20.273Z,45.75
2023-02-27T01:02:23.254Z,46.08
2023-02-27T01:07:26.190Z,46.48
2023-02-27T01:12:31.014Z,46.72
2023-02-27T01:17:33.822Z,46.74
2023-02-27T01:22:36.606Z,46.83
2023-02-27T01:27:40.827Z,47.20
2023-02-27T01:32:43.873Z,47.42
2023-02-27T01:37:47.344Z,47.24
2023-02-27T01:42:51.736Z,47.32
2023-02-27T01:47:56.431Z,47.67
2023-02-27T01:53:00.901Z,47.63
2023-02-27T01:58:05.376Z,48.01
2023-02-27T02:03:12.711Z,47.63
2023-02-27T02:08:18.479Z,48.24
2023-02-27T02:13:23.653Z,48.06
2023-02-27T02:18:31.400Z,48.24
2023-02-27T02:24:09.654Z,47.95
2023-02-27T02:29:35.857Z,48.16
2023-02-27T02:35:00.914Z,48.60
2023-02-27T02:40:20.178Z,48.56
2023-02-27T02:45:27.677Z,48.52
2023-02-27T02:50:31.269Z,48.71
2023-02-27T02:55:36.388Z,48.71
2023-02-27T03:00:41.749Z,48.63
2023-02-27T03:05:47.962Z,48.76
2023-02-27T03:10:53.708Z,48.91
2023-02-27T03:15:59.129Z,49.11
2023-02-27T03:21:04.296Z,49.20
2023-02-27T03:26:08.520Z,49.07
2023-02-27T03:31:15.395Z,48.95
2023-02-27T03:36:21.621Z,49.36
2023-02-27T03:41:28.913Z,49.43
2023-02-27T03:46:44.319Z,49.43
2023-02-27T03:51:47.250Z,49.31
2023-02-27T03:56:51.949Z,49.28
2023-02-27T04:01:54.920Z,49.26
2023-02-27T04:07:17.397Z,49.46
2023-02-27T04:12:30.186Z,49.41
2023-02-27T04:17:33.115Z,49.29
2023-02-27T04:22:37.341Z,49.39
2023-02-27T04:27:41.968Z,49.59
2023-02-27T04:32:46.709Z,49.20
2023-02-27T04:37:50.822Z,49.22
2023-02-27T04:42:55.909Z,49.30
2023-02-27T04:48:00.130Z,48.94
2023-02-27T04:53:05.726Z,48.79
2023-02-27T04:58:11.566Z,48.92
2023-02-27T05:03:16.033Z,48.74
2023-02-27T05:08:22.028Z,48.92
2023-02-27T05:13:26.837Z,48.99
2023-02-27T05:18:29.631Z,48.96
2023-02-27T05:23:35.681Z,49.05
2023-02-27T05:28:44.689Z,49.04
2023-02-27T05:33:49.792Z,48.83
2023-02-27T05:38:54.219Z,48.87
2023-02-27T05:44:00.353Z,49.16
2023-02-27T05:49:05.032Z,48.86
2023-02-27T05:54:11.145Z,48.96
2023-02-27T05:59:17.264Z,48.94
2023-02-27T06:04:20.685Z,49.11
2023-02-27T06:09:23.513Z,48.64
2023-02-27T06:14:27.625Z,48.77
2023-02-27T06:19:30.447Z,48.86
2023-02-27T06:24:33.256Z,48.70
2023-02-27T06:29:37.438Z,48.85
2023-02-27T06:34:40.191Z,48.80
2023-02-27T06:39:43.051Z,48.79
2023-02-27T06:44:47.225Z,48.72
2023-02-27T06:49:50.136Z,48.79
2023-02-27T06:54:53.053Z,48.66
2023-02-27T06:59:57.291Z,48.73
2023-02-27T07:05:00.223Z,48.89
2023-02-27T07:10:09.203Z,48.97
2023-02-27T07:15:13.655Z,48.79
2023-02-27T07:20:16.601Z,48.74
2023-02-27T07:25:19.513Z,35.16
2023-02-27T07:30:23.818Z,30.45
2023-02-27T07:35:26.689Z,31.62
2023-02-27T07:40:29.597Z,32.18
2023-02-27T07:45:33.792Z,38.39
2023-02-27T07:50:36.577Z,39.19
2023-02-27T07:55:39.466Z,39.50
2023-02-27T08:00:43.586Z,39.96
2023-02-27T08:05:46.486Z,39.38
2023-02-27T08:10:50.483Z,38.89
2023-02-27T08:15:55.134Z,39.11
2023-02-27T08:20:58.046Z,39.20
2023-02-27T08:26:01.086Z,39.44
2023-02-27T08:31:07.000Z,39.67
2023-02-27T08:36:10.015Z,40.16
2023-02-27T08:41:12.928Z,40.32
2023-02-27T08:46:17.042Z,40.75
2023-02-27T08:51:19.831Z,41.15
2023-02-27T08:56:22.641Z,41.21
2023-02-27T09:01:29.775Z,41.37
2023-02-27T09:06:33.107Z,41.79
2023-02-27T09:11:38.437Z,42.17
2023-02-27T09:16:42.949Z,42.29
2023-02-27T09:21:45.934Z,30.99
2023-02-27T09:26:49.219Z,30.97
2023-02-27T09:31:53.694Z,33.91
2023-02-27T09:36:59.766Z,35.30
2023-02-27T09:42:03.609Z,35.08
2023-02-27T09:47:10.874Z,35.24
2023-02-27T09:52:14.219Z,35.58
2023-02-27T09:57:18.960Z,36.06
2023-02-27T10:02:31.262Z,36.33
2023-02-27T10:07:36.394Z,36.72
2023-02-27T10:12:55.852Z,36.86
2023-02-27T10:18:09.957Z,37.33
2023-02-27T10:23:27.212Z,37.35
2023-02-27T10:28:30.276Z,37.84
2023-02-27T10:33:36.001Z,37.83
2023-02-27T10:38:41.542Z,38.10
2023-02-27T10:43:44.523Z,38.04
2023-02-27T10:48:48.686Z,38.13
2023-02-27T10:53:52.870Z,38.34
2023-02-27T10:59:05.964Z,38.74
2023-02-27T11:04:10.178Z,38.69
2023-02-27T11:09:17.513Z,39.04
2023-02-27T11:14:28.847Z,39.14
2023-02-27T11:19:34.733Z,39.32
2023-02-27T11:24:37.688Z,39.53
2023-02-27T11:29:40.534Z,39.58
2023-02-27T11:34:49.360Z,39.70
2023-02-27T11:39:52.856Z,39.60
2023-02-27T11:44:57.446Z,40.03
2023-02-27T11:50:32.588Z,40.10
2023-02-27T11:55:35.345Z,40.29
2023-02-27T12:00:40.589Z,40.08
2023-02-27T12:05:46.764Z,40.49
2023-02-27T12:10:50.973Z,40.90
2023-02-27T12:15:56.615Z,40.90
2023-02-27T12:21:02.481Z,40.70
2023-02-27T12:26:06.855Z,40.94
2023-02-27T12:31:33.352Z,41.20
2023-02-27T12:36:37.494Z,41.51
2023-02-27T12:41:47.636Z,41.54
2023-02-27T12:46:51.678Z,41.62
2023-02-27T12:52:00.927Z,41.79
2023-02-27T12:57:12.277Z,42.02
2023-02-27T13:02:26.653Z,42.36
2023-02-27T13:07:32.482Z,42.55
2023-02-27T13:12:37.408Z,28.37
2023-02-27T13:17:41.351Z,28.91
2023-02-27T13:22:48.974Z,33.31
2023-02-27T13:27:52.983Z,33.95
2023-02-27T13:32:59.615Z,35.04
2023-02-27T13:38:05.395Z,36.30
2023-02-27T13:43:31.245Z,37.89
2023-02-27T13:48:54.848Z,38.22
2023-02-27T13:54:19.481Z,38.89
2023-02-27T13:59:23.693Z,39.11
2023-02-27T14:04:28.290Z,39.20
2023-02-27T14:09:35.000Z,39.24
2023-02-27T14:14:44.377Z,39.72
2023-02-27T14:20:03.439Z,34.48
2023-02-27T14:25:18.482Z,33.92
2023-02-27T14:30:41.656Z,38.14
2023-02-27T14:35:46.712Z,38.19
2023-02-27T14:40:56.702Z,38.38
2023-02-27T14:46:06.591Z,38.51
2023-02-27T14:51:09.408Z,38.94
2023-02-27T14:56:18.829Z,39.40
2023-02-27T15:01:21.640Z,39.52
2023-02-27T15:06:28.015Z,39.68
2023-02-27T15:11:32.565Z,39.90
2023-02-27T15:16:38.292Z,40.12
2023-02-27T15:21:42.324Z,40.32
2023-02-27T15:26:46.700Z,40.29
2023-02-27T15:31:49.729Z,40.78
2023-02-27T15:36:53.613Z,40.72
2023-02-27T15:41:59.406Z,41.14
2023-02-27T15:47:02.252Z,41.11
2023-02-27T15:52:06.689Z,41.19
2023-02-27T15:57:11.092Z,41.43
2023-02-27T16:02:17.443Z,41.38
2023-02-27T16:07:21.568Z,41.68
2023-02-27T16:12:33.156Z,41.84
2023-02-27T16:17:35.969Z,41.90
2023-02-27T16:22:39.293Z,42.02
2023-02-27T16:27:43.449Z,42.45
2023-02-27T16:32:46.611Z,42.41
2023-02-27T16:37:50.240Z,42.63
2023-02-27T16:42:54.635Z,42.63
2023-02-27T16:47:58.139Z,42.59
2023-02-27T16:53:00.873Z,42.45
2023-02-27T16:58:06.326Z,42.99
2023-02-27T17:03:09.156Z,43.14
2023-02-27T17:08:12.773Z,43.16
2023-02-27T17:13:17.344Z,43.64
2023-02-27T17:18:20.271Z,44.38
2023-02-27T17:23:23.093Z,44.70
2023-02-27T17:28:27.314Z,39.91
2023-02-27T17:33:32.042Z,41.88
2023-02-27T17:38:34.952Z,42.27
2023-02-27T17:43:39.721Z,42.35
2023-02-27T17:48:42.568Z,42.26
2023-02-27T17:53:45.328Z,42.26
2023-02-27T17:58:49.644Z,42.21
2023-02-27T18:03:52.644Z,42.29
2023-02-27T18:08:55.507Z,41.91
2023-02-27T18:14:00.532Z,42.30
2023-02-27T18:19:03.905Z,42.29
2023-02-27T18:24:07.042Z,42.34
2023-02-27T18:29:11.942Z,42.18
2023-02-27T18:34:14.672Z,42.42
2023-02-27T18:39:17.457Z,42.29
2023-02-27T18:44:21.881Z,42.48
2023-02-27T18:49:24.868Z,42.23
2023-02-27T18:54:27.652Z,42.27
2023-02-27T18:59:31.799Z,42.04
2023-02-27T19:04:34.615Z,42.40
2023-02-27T19:09:37.557Z,42.47
2023-02-27T19:14:41.963Z,42.56
2023-02-27T19:19:45.047Z,42.78
2023-02-27T19:24:48.199Z,42.72
2023-02-27T19:29:52.589Z,42.87
2023-02-27T19:34:55.473Z,42.84
2023-02-27T19:39:58.316Z,42.76
2023-02-27T19:45:02.570Z,42.80
2023-02-27T19:50:07.003Z,42.98
2023-02-27T19:55:10.256Z,43.30
2023-02-27T20:00:16.513Z,43.33
2023-02-27T20:05:19.409Z,43.54
2023-02-27T20:10:22.365Z,43.93
2023-02-27T20:15:26.488Z,43.74
2023-02-27T20:20:31.728Z,44.13
2023-02-27T20:25:34.730Z,44.45
2023-02-27T20:30:40.019Z,44.43
2023-02-27T20:35:42.875Z,44.67
2023-02-27T20:40:45.834Z,44.77
2023-02-27T20:45:50.064Z,45.15
2023-02-27T20:50:52.860Z,44.96
2023-02-27T20:55:55.599Z,45.25
2023-02-27T21:00:59.770Z,45.43
2023-02-27T21:06:02.574Z,45.56
2023-02-27T21:11:09.361Z,45.78
2023-02-27T21:16:14.782Z,45.74
2023-02-27T21:21:18.650Z,46.07
2023-02-27T21:26:22.585Z,46.08
2023-02-27T21:31:27.782Z,45.86
2023-02-27T21:36:33.397Z,46.29
2023-02-27T21:41:36.252Z,46.06
2023-02-27T21:46:40.367Z,46.19
2023-02-27T21:51:43.374Z,46.33
2023-02-27T21:56:46.838Z,46.59
2023-02-27T22:01:50.922Z,46.53
2023-02-27T22:06:53.793Z,46.80
2023-02-27T22:11:56.685Z,46.96
2023-02-27T22:17:00.932Z,46.83
2023-02-27T22:22:03.659Z,46.73
2023-02-27T22:27:06.397Z,46.94
2023-02-27T22:32:10.553Z,46.85
2023-02-27T22:37:16.024Z,47.25
2023-02-27T22:42:18.878Z,47.66
2023-02-27T22:47:23.034Z,47.62
2023-02-27T22:52:25.760Z,47.52
2023-02-27T22:57:28.517Z,47.87
2023-02-27T23:02:33.976Z,47.86
2023-02-27T23:07:36.922Z,47.88
2023-02-27T23:12:39.681Z,47.90
2023-02-27T23:17:56.560Z,48.06
2023-02-27T23:23:00.530Z,48.27
2023-02-27T23:28:03.387Z,48.35
2023-02-27T23:33:07.647Z,48.12
2023-02-27T23:38:10.432Z,48.24
2023-02-27T23:43:13.283Z,48.15
2023-02-27T23:48:17.468Z,48.28
2023-02-27T23:53:20.613Z,48.41
2023-02-27T23:58:23.427Z,48.25
